Seaside, CA

11:45 PM PDT on May 29, 2015 (GMT -0700)
Monte Vista | | Change Station
CLOSE
Current Station
Personal Weather Station
Location: Monterey, CA
Elevation: 466 ft
Nearby Weather Stations

Elev 466 ft 36.58 °N, 121.91 °W | Updated 3 minutes ago

Overcast
Overcast
52.5 °F
Feels Like 52.5 °F
N
0.0
Wind Variable Wind from ENE
Gusts 0.0 mph

Today
High -- | Low -- °F
--% Chance of Precip.
Yesterday
High -- | Low -- °F
Precip. -- in
5:51 AM 8:18 PM
Waxing Gibbous, 88% visible
Pressure 30.00 in
Visibility 6.0 miles
Clouds Overcast 200 ft
Dew Point 51 °F
Humidity 94%
Rainfall 0.00 in
Snow Depth Not available.
UV 0 out of 12
Pollen 5.60 out of 12
Air Quality Not available.
Flu Activity Sporadic
METAR KMRY 300554Z AUTO 22004KT 6SM BR OVC002 11/10 A2997 RMK AO2 SLP159 T01110100 10150 20111 58003

More Conditions Fewer Conditions

Pressure 30.00 in
Visibility 6.0 miles
Clouds Overcast 200 ft
Dew Point 51 °F
Humidity 94%
Rainfall 0.00 in
Snow Depth Not available.
UV 0 out of 12
Pollen 5.60 out of 12
Air Quality Not available.
Flu Activity Sporadic
METAR KMRY 300554Z AUTO 22004KT 6SM BR OVC002 11/10 A2997 RMK AO2 SLP159 T01110100 10150 20111 58003

More Conditions Fewer Conditions

10-Day Weather Forecast

Almanac

Astronomy

May. 29, 2015 Rise Set
Actual Time
Civil Twilight
Nautical Twilight
Astronomical Twilight
Moon
Length of Visible Light
Length of Day
Tomorrow will be .
, % of the Moon is Illuminated

Today's Extremes

State Highs State Lows

Community

WunderPhotos

Upload Photos

1,825,472 photos uploaded!

WunderBlogs® & News

Nearby

Air Quality

  Air Quality AQ Index Pollutant
Not available.

Snow Depth

Station Depth Elevation

Earthquake Activity

City Distance Mag. Time & Date
Minimum magnitude displayed is 2.5.

Coastal Water Temperatures

Place Temperature

Stations

Nearby Weather Stations

Station Location Temp. Windchill Dew Point Humidity Wind Precip. Elev Updated Type